sensor_id;sensor_type;location;lat;lon;timestamp;temperature;humidity
64918;HTU21D;52176;44.858;38.372;2022-08-18T00:00:30;22.67;84.58
64918;HTU21D;52176;44.858;38.372;2022-08-18T00:02:58;22.64;84.62
64918;HTU21D;52176;44.858;38.372;2022-08-18T00:05:24;22.61;84.65
64918;HTU21D;52176;44.858;38.372;2022-08-18T00:07:50;22.58;84.69
64918;HTU21D;52176;44.858;38.372;2022-08-18T00:10:16;22.55;84.81
64918;HTU21D;52176;44.858;38.372;2022-08-18T00:12:42;22.54;84.86
64918;HTU21D;52176;44.858;38.372;2022-08-18T00:15:09;22.53;84.91
64918;HTU21D;52176;44.858;38.372;2022-08-18T00:17:35;22.51;84.92
64918;HTU21D;52176;44.858;38.372;2022-08-18T00:20:05;22.50;85.00
64918;HTU21D;52176;44.858;38.372;2022-08-18T00:22:33;22.50;85.09
64918;HTU21D;52176;44.858;38.372;2022-08-18T00:24:59;22.50;85.06
64918;HTU21D;52176;44.858;38.372;2022-08-18T00:27:25;22.49;85.00
64918;HTU21D;52176;44.858;38.372;2022-08-18T00:29:53;22.47;85.08
64918;HTU21D;52176;44.858;38.372;2022-08-18T00:32:21;22.46;85.16
64918;HTU21D;52176;44.858;38.372;2022-08-18T00:34:47;22.42;85.13
64918;HTU21D;52176;44.858;38.372;2022-08-18T00:37:13;22.41;85.19
64918;HTU21D;52176;44.858;38.372;2022-08-18T00:39:39;22.41;85.21
64918;HTU21D;52176;44.858;38.372;2022-08-18T00:42:22;22.40;85.29
64918;HTU21D;52176;44.858;38.372;2022-08-18T00:44:48;22.38;85.18
64918;HTU21D;52176;44.858;38.372;2022-08-18T00:47:14;22.39;85.26
64918;HTU21D;52176;44.858;38.372;2022-08-18T00:49:40;22.38;85.29
64918;HTU21D;52176;44.858;38.372;2022-08-18T00:52:07;22.37;85.31
64918;HTU21D;52176;44.858;38.372;2022-08-18T00:54:34;22.35;85.41
64918;HTU21D;52176;44.858;38.372;2022-08-18T00:57:03;22.35;85.45
64918;HTU21D;52176;44.858;38.372;2022-08-18T01:02:07;22.33;85.45
64918;HTU21D;52176;44.858;38.372;2022-08-18T01:04:41;22.32;85.48
64918;HTU21D;52176;44.858;38.372;2022-08-18T01:07:10;22.31;85.45
64918;HTU21D;52176;44.858;38.372;2022-08-18T01:09:38;22.26;85.45
64918;HTU21D;52176;44.858;38.372;2022-08-18T01:12:04;22.25;85.52
64918;HTU21D;52176;44.858;38.372;2022-08-18T01:14:30;22.24;85.53
64918;HTU21D;52176;44.858;38.372;2022-08-18T01:16:56;22.21;85.57
64918;HTU21D;52176;44.858;38.372;2022-08-18T01:19:40;22.20;85.57
64918;HTU21D;52176;44.858;38.372;2022-08-18T01:22:32;22.18;85.57
64918;HTU21D;52176;44.858;38.372;2022-08-18T01:25:00;22.16;85.64
64918;HTU21D;52176;44.858;38.372;2022-08-18T01:27:45;22.16;85.67
64918;HTU21D;52176;44.858;38.372;2022-08-18T01:30:12;22.13;85.77
64918;HTU21D;52176;44.858;38.372;2022-08-18T01:32:39;22.13;85.83
64918;HTU21D;52176;44.858;38.372;2022-08-18T01:35:05;22.11;85.93
64918;HTU21D;52176;44.858;38.372;2022-08-18T01:37:33;22.11;86.02
64918;HTU21D;52176;44.858;38.372;2022-08-18T01:39:59;22.10;86.06
64918;HTU21D;52176;44.858;38.372;2022-08-18T01:42:25;22.11;86.12
64918;HTU21D;52176;44.858;38.372;2022-08-18T01:44:51;22.10;86.11
64918;HTU21D;52176;44.858;38.372;2022-08-18T01:47:17;22.10;86.21
64918;HTU21D;52176;44.858;38.372;2022-08-18T01:49:45;22.10;86.25
64918;HTU21D;52176;44.858;38.372;2022-08-18T01:52:15;22.10;86.32
64918;HTU21D;52176;44.858;38.372;2022-08-18T01:54:43;22.10;86.25
64918;HTU21D;52176;44.858;38.372;2022-08-18T01:57:09;22.09;86.29
64918;HTU21D;52176;44.858;38.372;2022-08-18T01:59:37;22.07;86.28
64918;HTU21D;52176;44.858;38.372;2022-08-18T02:02:03;22.04;86.30
64918;HTU21D;52176;44.858;38.372;2022-08-18T02:04:29;22.01;86.29
64918;HTU21D;52176;44.858;38.372;2022-08-18T02:06:58;21.96;86.38
64918;HTU21D;52176;44.858;38.372;2022-08-18T02:09:23;21.91;86.45
64918;HTU21D;52176;44.858;38.372;2022-08-18T02:11:50;21.88;86.51
64918;HTU21D;52176;44.858;38.372;2022-08-18T02:14:16;21.82;86.61
64918;HTU21D;52176;44.858;38.372;2022-08-18T02:16:41;21.79;86.67
64918;HTU21D;52176;44.858;38.372;2022-08-18T02:19:08;21.76;86.70
64918;HTU21D;52176;44.858;38.372;2022-08-18T02:21:33;21.74;86.72
64918;HTU21D;52176;44.858;38.372;2022-08-18T02:23:59;21.69;86.80
64918;HTU21D;52176;44.858;38.372;2022-08-18T02:26:25;21.69;86.90
64918;HTU21D;52176;44.858;38.372;2022-08-18T02:28:51;21.66;86.93
64918;HTU21D;52176;44.858;38.372;2022-08-18T02:31:18;21.66;86.96
64918;HTU21D;52176;44.858;38.372;2022-08-18T02:33:45;21.67;86.99
64918;HTU21D;52176;44.858;38.372;2022-08-18T02:36:11;21.66;86.98
64918;HTU21D;52176;44.858;38.372;2022-08-18T02:38:37;21.64;86.95
64918;HTU21D;52176;44.858;38.372;2022-08-18T02:41:04;21.63;86.93
64918;HTU21D;52176;44.858;38.372;2022-08-18T02:43:31;21.61;86.91
64918;HTU21D;52176;44.858;38.372;2022-08-18T02:45:57;21.58;86.96
64918;HTU21D;52176;44.858;38.372;2022-08-18T02:48:23;21.57;87.00
64918;HTU21D;52176;44.858;38.372;2022-08-18T02:51:00;21.51;86.99
64918;HTU21D;52176;44.858;38.372;2022-08-18T02:53:26;21.49;87.08
64918;HTU21D;52176;44.858;38.372;2022-08-18T02:55:53;21.45;87.11
64918;HTU21D;52176;44.858;38.372;2022-08-18T02:58:19;21.46;87.23
64918;HTU21D;52176;44.858;38.372;2022-08-18T03:00:45;21.45;87.27
64918;HTU21D;52176;44.858;38.372;2022-08-18T03:03:11;21.46;87.29
64918;HTU21D;52176;44.858;38.372;2022-08-18T03:05:38;21.48;87.33
64918;HTU21D;52176;44.858;38.372;2022-08-18T03:08:04;21.50;87.34
64918;HTU21D;52176;44.858;38.372;2022-08-18T03:10:30;21.51;87.40
64918;HTU21D;52176;44.858;38.372;2022-08-18T03:12:56;21.57;87.38
64918;HTU21D;52176;44.858;38.372;2022-08-18T03:15:21;21.60;87.35
64918;HTU21D;52176;44.858;38.372;2022-08-18T03:17:48;21.66;87.32
64918;HTU21D;52176;44.858;38.372;2022-08-18T03:20:14;21.70;87.18
64918;HTU21D;52176;44.858;38.372;2022-08-18T03:22:40;21.77;87.08
64918;HTU21D;52176;44.858;38.372;2022-08-18T03:25:06;21.80;87.03
64918;HTU21D;52176;44.858;38.372;2022-08-18T03:27:32;21.90;86.93
64918;HTU21D;52176;44.858;38.372;2022-08-18T03:29:58;21.97;86.77
64918;HTU21D;52176;44.858;38.372;2022-08-18T03:32:24;22.09;86.58
64918;HTU21D;52176;44.858;38.372;2022-08-18T03:34:50;22.18;86.34
64918;HTU21D;52176;44.858;38.372;2022-08-18T03:37:16;22.24;86.14
64918;HTU21D;52176;44.858;38.372;2022-08-18T03:39:42;22.32;86.02
64918;HTU21D;52176;44.858;38.372;2022-08-18T03:42:08;22.43;85.81
64918;HTU21D;52176;44.858;38.372;2022-08-18T03:44:34;22.61;85.55
64918;HTU21D;52176;44.858;38.372;2022-08-18T03:47:06;22.76;85.20
64918;HTU21D;52176;44.858;38.372;2022-08-18T03:49:32;22.91;84.91
64918;HTU21D;52176;44.858;38.372;2022-08-18T03:51:58;23.06;84.56
64918;HTU21D;52176;44.858;38.372;2022-08-18T03:54:25;23.21;84.25
64918;HTU21D;52176;44.858;38.372;2022-08-18T03:56:51;23.38;83.91
64918;HTU21D;52176;44.858;38.372;2022-08-18T03:59:20;23.56;83.54
64918;HTU21D;52176;44.858;38.372;2022-08-18T04:01:47;23.75;83.16
64918;HTU21D;52176;44.858;38.372;2022-08-18T04:04:15;23.91;82.68
64918;HTU21D;52176;44.858;38.372;2022-08-18T04:06:42;23.98;82.49
64918;HTU21D;52176;44.858;38.372;2022-08-18T04:09:11;24.09;82.34
64918;HTU21D;52176;44.858;38.372;2022-08-18T04:11:37;24.20;82.10
64918;HTU21D;52176;44.858;38.372;2022-08-18T04:14:04;24.33;81.78
64918;HTU21D;52176;44.858;38.372;2022-08-18T04:16:30;24.43;81.52
64918;HTU21D;52176;44.858;38.372;2022-08-18T04:18:57;24.51;81.33
64918;HTU21D;52176;44.858;38.372;2022-08-18T04:21:26;24.60;81.13
64918;HTU21D;52176;44.858;38.372;2022-08-18T04:23:52;24.66;80.88
64918;HTU21D;52176;44.858;38.372;2022-08-18T04:26:18;24.71;80.64
64918;HTU21D;52176;44.858;38.372;2022-08-18T04:28:44;24.76;80.59
64918;HTU21D;52176;44.858;38.372;2022-08-18T04:31:12;24.87;80.56
64918;HTU21D;52176;44.858;38.372;2022-08-18T04:33:38;25.04;80.51
64918;HTU21D;52176;44.858;38.372;2022-08-18T04:36:08;25.27;80.17
64918;HTU21D;52176;44.858;38.372;2022-08-18T04:38:34;25.42;79.92
64918;HTU21D;52176;44.858;38.372;2022-08-18T04:41:00;25.52;79.66
64918;HTU21D;52176;44.858;38.372;2022-08-18T04:43:26;25.59;79.48
64918;HTU21D;52176;44.858;38.372;2022-08-18T04:45:51;25.67;79.33
64918;HTU21D;52176;44.858;38.372;2022-08-18T04:48:17;25.74;79.11
64918;HTU21D;52176;44.858;38.372;2022-08-18T04:50:43;25.79;78.86
64918;HTU21D;52176;44.858;38.372;2022-08-18T04:53:09;25.88;78.63
64918;HTU21D;52176;44.858;38.372;2022-08-18T04:55:54;25.97;78.38
64918;HTU21D;52176;44.858;38.372;2022-08-18T04:58:21;26.17;78.24
64918;HTU21D;52176;44.858;38.372;2022-08-18T05:00:55;26.60;77.50
64918;HTU21D;52176;44.858;38.372;2022-08-18T05:03:21;27.15;76.43
64918;HTU21D;52176;44.858;38.372;2022-08-18T05:05:52;27.67;75.15
64918;HTU21D;52176;44.858;38.372;2022-08-18T05:08:18;28.12;74.14
64918;HTU21D;52176;44.858;38.372;2022-08-18T05:10:44;28.56;72.91
64918;HTU21D;52176;44.858;38.372;2022-08-18T05:13:09;29.00;72.00
64918;HTU21D;52176;44.858;38.372;2022-08-18T05:15:35;29.42;70.64
64918;HTU21D;52176;44.858;38.372;2022-08-18T05:18:02;29.82;69.58
64918;HTU21D;52176;44.858;38.372;2022-08-18T05:20:29;30.21;68.53
64918;HTU21D;52176;44.858;38.372;2022-08-18T05:22:55;30.59;67.85
64918;HTU21D;52176;44.858;38.372;2022-08-18T05:25:21;30.98;66.62
64918;HTU21D;52176;44.858;38.372;2022-08-18T05:27:47;31.34;65.65
64918;HTU21D;52176;44.858;38.372;2022-08-18T05:30:13;31.68;64.50
64918;HTU21D;52176;44.858;38.372;2022-08-18T05:32:40;31.84;63.63
64918;HTU21D;52176;44.858;38.372;2022-08-18T05:35:14;32.09;63.06
64918;HTU21D;52176;44.858;38.372;2022-08-18T05:40:09;32.69;60.57
64918;HTU21D;52176;44.858;38.372;2022-08-18T05:42:36;32.90;59.70
64918;HTU21D;52176;44.858;38.372;2022-08-18T05:45:05;33.14;58.87
64918;HTU21D;52176;44.858;38.372;2022-08-18T05:47:32;33.41;58.41
64918;HTU21D;52176;44.858;38.372;2022-08-18T05:50:02;33.68;57.16
64918;HTU21D;52176;44.858;38.372;2022-08-18T05:52:30;33.85;56.25
64918;HTU21D;52176;44.858;38.372;2022-08-18T05:55:01;33.88;55.90
64918;HTU21D;52176;44.858;38.372;2022-08-18T05:57:51;34.03;55.71
64918;HTU21D;52176;44.858;38.372;2022-08-18T06:00:18;34.20;55.17
64918;HTU21D;52176;44.858;38.372;2022-08-18T06:05:36;34.54;53.84
64918;HTU21D;52176;44.858;38.372;2022-08-18T06:08:12;34.91;53.26
64918;HTU21D;52176;44.858;38.372;2022-08-18T06:10:40;35.18;52.36
64918;HTU21D;52176;44.858;38.372;2022-08-18T06:13:08;35.25;52.33
64918;HTU21D;52176;44.858;38.372;2022-08-18T06:20:33;35.80;50.14
64918;HTU21D;52176;44.858;38.372;2022-08-18T06:23:21;35.42;50.59
64918;HTU21D;52176;44.858;38.372;2022-08-18T06:31:21;36.11;49.44
64918;HTU21D;52176;44.858;38.372;2022-08-18T06:34:13;36.40;48.84
64918;HTU21D;52176;44.858;38.372;2022-08-18T06:36:53;36.73;47.94
64918;HTU21D;52176;44.858;38.372;2022-08-18T06:39:30;37.08;46.96
64918;HTU21D;52176;44.858;38.372;2022-08-18T06:41:57;37.36;46.46
64918;HTU21D;52176;44.858;38.372;2022-08-18T06:44:33;37.62;45.89
64918;HTU21D;52176;44.858;38.372;2022-08-18T06:47:16;37.78;45.29
64918;HTU21D;52176;44.858;38.372;2022-08-18T06:53:03;38.21;44.27
64918;HTU21D;52176;44.858;38.372;2022-08-18T06:55:43;38.55;43.57
64918;HTU21D;52176;44.858;38.372;2022-08-18T07:03:22;39.29;41.65
64918;HTU21D;52176;44.858;38.372;2022-08-18T07:05:59;39.41;40.65
64918;HTU21D;52176;44.858;38.372;2022-08-18T07:11:24;39.30;40.75
64918;HTU21D;52176;44.858;38.372;2022-08-18T07:13:53;39.32;40.91
64918;HTU21D;52176;44.858;38.372;2022-08-18T07:18:51;39.49;39.78
64918;HTU21D;52176;44.858;38.372;2022-08-18T07:21:28;39.40;39.59
64918;HTU21D;52176;44.858;38.372;2022-08-18T07:24:03;39.54;40.06
64918;HTU21D;52176;44.858;38.372;2022-08-18T07:26:29;39.73;39.14
64918;HTU21D;52176;44.858;38.372;2022-08-18T07:29:12;39.85;39.14
64918;HTU21D;52176;44.858;38.372;2022-08-18T07:31:47;40.24;38.90
64918;HTU21D;52176;44.858;38.372;2022-08-18T07:34:27;40.50;38.64
64918;HTU21D;52176;44.858;38.372;2022-08-18T07:37:04;40.43;37.78
64918;HTU21D;52176;44.858;38.372;2022-08-18T07:39:39;40.31;37.48
64918;HTU21D;52176;44.858;38.372;2022-08-18T07:45:08;40.75;37.56
64918;HTU21D;52176;44.858;38.372;2022-08-18T07:48:02;40.88;37.53
64918;HTU21D;52176;44.858;38.372;2022-08-18T07:50:36;41.28;38.60
64918;HTU21D;52176;44.858;38.372;2022-08-18T07:53:09;41.49;36.91
64918;HTU21D;52176;44.858;38.372;2022-08-18T07:55:40;41.47;35.91
64918;HTU21D;52176;44.858;38.372;2022-08-18T07:58:40;41.41;35.94
64918;HTU21D;52176;44.858;38.372;2022-08-18T08:01:35;41.56;36.00
64918;HTU21D;52176;44.858;38.372;2022-08-18T08:04:16;41.96;35.66
64918;HTU21D;52176;44.858;38.372;2022-08-18T08:07:26;42.26;34.94
64918;HTU21D;52176;44.858;38.372;2022-08-18T08:12:23;42.41;34.41
64918;HTU21D;52176;44.858;38.372;2022-08-18T08:15:07;42.63;33.70
64918;HTU21D;52176;44.858;38.372;2022-08-18T08:30:15;42.83;32.31
64918;HTU21D;52176;44.858;38.372;2022-08-18T08:35:15;43.10;32.08
64918;HTU21D;52176;44.858;38.372;2022-08-18T08:37:45;43.28;31.16
64918;HTU21D;52176;44.858;38.372;2022-08-18T08:43:07;43.66;31.35
64918;HTU21D;52176;44.858;38.372;2022-08-18T08:48:48;43.95;30.87
64918;HTU21D;52176;44.858;38.372;2022-08-18T08:51:37;43.88;30.58
64918;HTU21D;52176;44.858;38.372;2022-08-18T08:54:10;43.79;30.77
64918;HTU21D;52176;44.858;38.372;2022-08-18T08:56:43;43.87;30.49
64918;HTU21D;52176;44.858;38.372;2022-08-18T08:59:12;43.97;30.33
64918;HTU21D;52176;44.858;38.372;2022-08-18T09:08:20;44.10;29.00
64918;HTU21D;52176;44.858;38.372;2022-08-18T09:23:49;43.93;28.75
64918;HTU21D;52176;44.858;38.372;2022-08-18T09:29:13;43.95;29.27
64918;HTU21D;52176;44.858;38.372;2022-08-18T09:31:40;44.14;29.06
64918;HTU21D;52176;44.858;38.372;2022-08-18T09:34:36;44.36;28.89
64918;HTU21D;52176;44.858;38.372;2022-08-18T09:37:21;44.56;28.68
64918;HTU21D;52176;44.858;38.372;2022-08-18T09:40:00;44.65;28.17
64918;HTU21D;52176;44.858;38.372;2022-08-18T09:42:55;44.74;28.32
64918;HTU21D;52176;44.858;38.372;2022-08-18T09:47:56;45.00;28.34
64918;HTU21D;52176;44.858;38.372;2022-08-18T09:52:54;45.42;27.59
64918;HTU21D;52176;44.858;38.372;2022-08-18T10:00:37;45.25;27.22
64918;HTU21D;52176;44.858;38.372;2022-08-18T10:03:11;45.30;27.61
64918;HTU21D;52176;44.858;38.372;2022-08-18T10:05:38;45.34;27.26
64918;HTU21D;52176;44.858;38.372;2022-08-18T10:10:41;44.23;28.54
64918;HTU21D;52176;44.858;38.372;2022-08-18T10:13:22;44.33;28.42
64918;HTU21D;52176;44.858;38.372;2022-08-18T10:24:22;44.88;27.84
64918;HTU21D;52176;44.858;38.372;2022-08-18T10:34:46;45.42;27.52
64918;HTU21D;52176;44.858;38.372;2022-08-18T10:37:41;45.49;27.27
64918;HTU21D;52176;44.858;38.372;2022-08-18T10:42:52;45.49;27.42
64918;HTU21D;52176;44.858;38.372;2022-08-18T10:45:29;44.70;28.20
64918;HTU21D;52176;44.858;38.372;2022-08-18T10:48:22;44.18;28.96
64918;HTU21D;52176;44.858;38.372;2022-08-18T10:50:52;43.64;29.66
64918;HTU21D;52176;44.858;38.372;2022-08-18T11:04:45;43.91;29.22
64918;HTU21D;52176;44.858;38.372;2022-08-18T11:09:47;43.93;29.08
64918;HTU21D;52176;44.858;38.372;2022-08-18T11:12:14;43.95;29.06
64918;HTU21D;52176;44.858;38.372;2022-08-18T11:15:09;44.06;29.58
64918;HTU21D;52176;44.858;38.372;2022-08-18T11:18:00;44.00;29.62
64918;HTU21D;52176;44.858;38.372;2022-08-18T11:20:30;44.00;29.48
64918;HTU21D;52176;44.858;38.372;2022-08-18T11:22:59;44.12;29.58
64918;HTU21D;52176;44.858;38.372;2022-08-18T11:25:30;44.24;29.36
64918;HTU21D;52176;44.858;38.372;2022-08-18T11:27:57;43.94;29.29
64918;HTU21D;52176;44.858;38.372;2022-08-18T11:30:28;43.04;30.15
64918;HTU21D;52176;44.858;38.372;2022-08-18T11:32:55;41.95;31.21
64918;HTU21D;52176;44.858;38.372;2022-08-18T11:35:26;40.81;32.83
64918;HTU21D;52176;44.858;38.372;2022-08-18T11:42:53;40.10;33.61
64918;HTU21D;52176;44.858;38.372;2022-08-18T11:45:21;39.56;34.31
64918;HTU21D;52176;44.858;38.372;2022-08-18T11:50:31;38.62;36.14
64918;HTU21D;52176;44.858;38.372;2022-08-18T11:53:10;38.12;36.71
64918;HTU21D;52176;44.858;38.372;2022-08-18T11:55:38;37.69;37.39
64918;HTU21D;52176;44.858;38.372;2022-08-18T11:58:03;37.41;37.86
64918;HTU21D;52176;44.858;38.372;2022-08-18T12:01:04;37.37;38.63
64918;HTU21D;52176;44.858;38.372;2022-08-18T12:05:51;37.42;38.20
64918;HTU21D;52176;44.858;38.372;2022-08-18T12:08:22;37.08;38.67
64918;HTU21D;52176;44.858;38.372;2022-08-18T12:11:00;37.01;39.18
64918;HTU21D;52176;44.858;38.372;2022-08-18T12:13:25;37.17;39.06
64918;HTU21D;52176;44.858;38.372;2022-08-18T12:16:10;37.60;38.69
64918;HTU21D;52176;44.858;38.372;2022-08-18T12:18:37;38.26;37.96
64918;HTU21D;52176;44.858;38.372;2022-08-18T12:21:03;38.79;36.90
64918;HTU21D;52176;44.858;38.372;2022-08-18T12:23:30;39.15;36.37
64918;HTU21D;52176;44.858;38.372;2022-08-18T12:25:56;39.29;36.02
64918;HTU21D;52176;44.858;38.372;2022-08-18T12:28:22;39.35;36.20
64918;HTU21D;52176;44.858;38.372;2022-08-18T12:30:48;39.34;36.02
64918;HTU21D;52176;44.858;38.372;2022-08-18T12:33:13;39.06;36.49
64918;HTU21D;52176;44.858;38.372;2022-08-18T12:35:40;38.91;36.72
64918;HTU21D;52176;44.858;38.372;2022-08-18T12:38:05;38.84;36.75
64918;HTU21D;52176;44.858;38.372;2022-08-18T12:40:31;38.84;37.08
64918;HTU21D;52176;44.858;38.372;2022-08-18T12:42:57;38.86;37.03
64918;HTU21D;52176;44.858;38.372;2022-08-18T12:45:23;38.79;37.18
64918;HTU21D;52176;44.858;38.372;2022-08-18T12:47:50;38.40;37.37
64918;HTU21D;52176;44.858;38.372;2022-08-18T12:50:16;37.88;37.90
64918;HTU21D;52176;44.858;38.372;2022-08-18T12:52:42;37.42;38.65
64918;HTU21D;52176;44.858;38.372;2022-08-18T12:55:07;37.10;39.45
64918;HTU21D;52176;44.858;38.372;2022-08-18T12:57:34;36.78;39.94
64918;HTU21D;52176;44.858;38.372;2022-08-18T13:00:00;36.54;40.52
64918;HTU21D;52176;44.858;38.372;2022-08-18T13:02:26;36.37;40.70
64918;HTU21D;52176;44.858;38.372;2022-08-18T13:04:52;36.33;40.96
64918;HTU21D;52176;44.858;38.372;2022-08-18T13:07:18;36.48;40.33
64918;HTU21D;52176;44.858;38.372;2022-08-18T13:09:44;36.64;40.04
64918;HTU21D;52176;44.858;38.372;2022-08-18T13:12:10;36.87;39.77
64918;HTU21D;52176;44.858;38.372;2022-08-18T13:14:36;37.00;39.26
64918;HTU21D;52176;44.858;38.372;2022-08-18T13:17:02;36.97;39.16
64918;HTU21D;52176;44.858;38.372;2022-08-18T13:19:28;36.86;39.33
64918;HTU21D;52176;44.858;38.372;2022-08-18T13:21:54;36.75;39.88
64918;HTU21D;52176;44.858;38.372;2022-08-18T13:24:20;36.72;39.83
64918;HTU21D;52176;44.858;38.372;2022-08-18T13:26:46;36.73;39.81
64918;HTU21D;52176;44.858;38.372;2022-08-18T13:29:13;36.73;39.43
64918;HTU21D;52176;44.858;38.372;2022-08-18T13:31:40;36.75;39.53
64918;HTU21D;52176;44.858;38.372;2022-08-18T13:34:06;36.63;39.98
64918;HTU21D;52176;44.858;38.372;2022-08-18T13:36:32;36.55;40.04
64918;HTU21D;52176;44.858;38.372;2022-08-18T13:39:14;36.38;40.23
64918;HTU21D;52176;44.858;38.372;2022-08-18T13:41:40;36.17;40.66
64918;HTU21D;52176;44.858;38.372;2022-08-18T13:44:08;35.99;40.91
64918;HTU21D;52176;44.858;38.372;2022-08-18T13:46:34;35.75;41.14
64918;HTU21D;52176;44.858;38.372;2022-08-18T13:49:02;35.51;41.43
64918;HTU21D;52176;44.858;38.372;2022-08-18T13:51:28;35.27;41.80
64918;HTU21D;52176;44.858;38.372;2022-08-18T13:53:54;35.03;42.16
64918;HTU21D;52176;44.858;38.372;2022-08-18T13:56:23;34.82;42.40
64918;HTU21D;52176;44.858;38.372;2022-08-18T13:58:49;34.62;42.92
64918;HTU21D;52176;44.858;38.372;2022-08-18T14:01:15;34.46;43.41
64918;HTU21D;52176;44.858;38.372;2022-08-18T14:03:40;34.29;43.92
64918;HTU21D;52176;44.858;38.372;2022-08-18T14:06:06;34.09;44.54
64918;HTU21D;52176;44.858;38.372;2022-08-18T14:08:32;33.92;45.11
64918;HTU21D;52176;44.858;38.372;2022-08-18T14:10:59;33.78;45.61
64918;HTU21D;52176;44.858;38.372;2022-08-18T14:13:26;33.65;45.62
64918;HTU21D;52176;44.858;38.372;2022-08-18T14:15:52;33.52;45.90
64918;HTU21D;52176;44.858;38.372;2022-08-18T14:18:18;33.42;46.19
64918;HTU21D;52176;44.858;38.372;2022-08-18T14:20:44;33.35;46.51
64918;HTU21D;52176;44.858;38.372;2022-08-18T14:23:28;33.22;46.91
64918;HTU21D;52176;44.858;38.372;2022-08-18T14:26:12;33.14;47.31
64918;HTU21D;52176;44.858;38.372;2022-08-18T14:28:56;33.04;48.00
64918;HTU21D;52176;44.858;38.372;2022-08-18T14:31:22;32.97;48.49
64918;HTU21D;52176;44.858;38.372;2022-08-18T14:33:48;32.86;48.54
64918;HTU21D;52176;44.858;38.372;2022-08-18T14:36:15;32.78;49.28
64918;HTU21D;52176;44.858;38.372;2022-08-18T14:38:41;32.73;49.84
64918;HTU21D;52176;44.858;38.372;2022-08-18T14:41:10;32.71;51.08
64918;HTU21D;52176;44.858;38.372;2022-08-18T14:43:36;32.68;51.08
64918;HTU21D;52176;44.858;38.372;2022-08-18T14:46:03;32.62;50.91
64918;HTU21D;52176;44.858;38.372;2022-08-18T14:48:30;32.56;50.30
64918;HTU21D;52176;44.858;38.372;2022-08-18T14:50:57;32.53;50.69
64918;HTU21D;52176;44.858;38.372;2022-08-18T14:53:27;32.46;51.00
64918;HTU21D;52176;44.858;38.372;2022-08-18T14:55:53;32.40;50.84
64918;HTU21D;52176;44.858;38.372;2022-08-18T14:58:20;0.00;50.89
64918;HTU21D;52176;44.858;38.372;2022-08-18T15:00:46;32.19;51.08
64918;HTU21D;52176;44.858;38.372;2022-08-18T15:03:12;32.09;51.22
64918;HTU21D;52176;44.858;38.372;2022-08-18T15:05:38;32.01;51.31
64918;HTU21D;52176;44.858;38.372;2022-08-18T15:08:04;31.94;51.20
64918;HTU21D;52176;44.858;38.372;2022-08-18T15:10:31;31.86;51.32
64918;HTU21D;52176;44.858;38.372;2022-08-18T15:12:57;31.74;51.31
64918;HTU21D;52176;44.858;38.372;2022-08-18T15:15:26;31.64;51.46
64918;HTU21D;52176;44.858;38.372;2022-08-18T15:17:52;31.53;51.47
64918;HTU21D;52176;44.858;38.372;2022-08-18T15:20:17;31.41;51.75
64918;HTU21D;52176;44.858;38.372;2022-08-18T15:22:44;31.29;51.95
64918;HTU21D;52176;44.858;38.372;2022-08-18T15:25:29;31.14;52.12
64918;HTU21D;52176;44.858;38.372;2022-08-18T15:28:07;30.98;52.28
64918;HTU21D;52176;44.858;38.372;2022-08-18T15:30:34;30.85;52.60
64918;HTU21D;52176;44.858;38.372;2022-08-18T15:33:02;30.71;52.87
64918;HTU21D;52176;44.858;38.372;2022-08-18T15:35:29;30.57;53.14
64918;HTU21D;52176;44.858;38.372;2022-08-18T15:37:55;30.45;53.46
64918;HTU21D;52176;44.858;38.372;2022-08-18T15:40:22;30.34;53.68
64918;HTU21D;52176;44.858;38.372;2022-08-18T15:42:50;30.21;54.02
64918;HTU21D;52176;44.858;38.372;2022-08-18T15:45:17;30.07;54.29
64918;HTU21D;52176;44.858;38.372;2022-08-18T15:47:43;29.94;54.46
64918;HTU21D;52176;44.858;38.372;2022-08-18T15:50:10;29.86;54.65
64918;HTU21D;52176;44.858;38.372;2022-08-18T15:52:43;29.78;54.77
64918;HTU21D;52176;44.858;38.372;2022-08-18T15:55:09;29.75;54.26
64918;HTU21D;52176;44.858;38.372;2022-08-18T15:57:35;29.61;54.42
64918;HTU21D;52176;44.858;38.372;2022-08-18T16:00:02;29.50;54.70
64918;HTU21D;52176;44.858;38.372;2022-08-18T16:02:37;29.38;55.12
64918;HTU21D;52176;44.858;38.372;2022-08-18T16:05:04;29.27;55.56
64918;HTU21D;52176;44.858;38.372;2022-08-18T16:07:30;29.16;55.85
64918;HTU21D;52176;44.858;38.372;2022-08-18T16:09:56;29.06;56.23
64918;HTU21D;52176;44.858;38.372;2022-08-18T16:12:23;28.98;56.68
64918;HTU21D;52176;44.858;38.372;2022-08-18T16:14:49;28.88;57.22
64918;HTU21D;52176;44.858;38.372;2022-08-18T16:17:18;28.76;57.87
64918;HTU21D;52176;44.858;38.372;2022-08-18T16:19:46;28.64;58.31
64918;HTU21D;52176;44.858;38.372;2022-08-18T16:22:13;28.54;58.87
64918;HTU21D;52176;44.858;38.372;2022-08-18T16:24:39;28.46;59.35
64918;HTU21D;52176;44.858;38.372;2022-08-18T16:27:05;28.37;59.76
64918;HTU21D;52176;44.858;38.372;2022-08-18T16:29:31;28.28;60.18
64918;HTU21D;52176;44.858;38.372;2022-08-18T16:31:57;28.16;60.72
64918;HTU21D;52176;44.858;38.372;2022-08-18T16:34:24;28.06;61.18
64918;HTU21D;52176;44.858;38.372;2022-08-18T16:36:52;27.97;61.65
64918;HTU21D;52176;44.858;38.372;2022-08-18T16:39:22;27.85;62.22
64918;HTU21D;52176;44.858;38.372;2022-08-18T16:41:49;27.74;62.69
64918;HTU21D;52176;44.858;38.372;2022-08-18T16:44:16;27.65;63.15
64918;HTU21D;52176;44.858;38.372;2022-08-18T16:46:42;27.55;63.53
64918;HTU21D;52176;44.858;38.372;2022-08-18T16:49:09;27.46;63.85
64918;HTU21D;52176;44.858;38.372;2022-08-18T16:51:35;27.41;64.28
64918;HTU21D;52176;44.858;38.372;2022-08-18T16:54:01;27.34;64.51
64918;HTU21D;52176;44.858;38.372;2022-08-18T16:56:29;27.28;64.87
64918;HTU21D;52176;44.858;38.372;2022-08-18T16:58:55;27.23;65.24
64918;HTU21D;52176;44.858;38.372;2022-08-18T17:01:40;27.17;65.53
64918;HTU21D;52176;44.858;38.372;2022-08-18T17:04:26;27.14;65.59
64918;HTU21D;52176;44.858;38.372;2022-08-18T17:06:58;27.10;65.72
64918;HTU21D;52176;44.858;38.372;2022-08-18T17:09:24;27.06;66.04
64918;HTU21D;52176;44.858;38.372;2022-08-18T17:11:50;27.01;66.30
64918;HTU21D;52176;44.858;38.372;2022-08-18T17:14:16;26.97;66.67
64918;HTU21D;52176;44.858;38.372;2022-08-18T17:16:42;26.93;66.87
64918;HTU21D;52176;44.858;38.372;2022-08-18T17:19:10;26.89;67.15
64918;HTU21D;52176;44.858;38.372;2022-08-18T17:21:35;26.83;67.50
64918;HTU21D;52176;44.858;38.372;2022-08-18T17:24:02;26.76;67.94
64918;HTU21D;52176;44.858;38.372;2022-08-18T17:29:13;26.58;68.50
64918;HTU21D;52176;44.858;38.372;2022-08-18T17:32:00;26.52;68.41
64918;HTU21D;52176;44.858;38.372;2022-08-18T17:34:29;26.45;68.51
64918;HTU21D;52176;44.858;38.372;2022-08-18T17:36:56;26.39;68.78